createdAt,value
2019-01-12T00:02:03.645Z,9.00
2019-01-12T00:04:30.503Z,6.90
2019-01-12T00:06:57.337Z,7.80
2019-01-12T00:09:24.302Z,9.20
2019-01-12T00:11:51.303Z,8.93
2019-01-12T00:14:18.120Z,8.10
2019-01-12T00:16:44.960Z,8.27
2019-01-12T00:19:12.013Z,7.63
2019-01-12T00:21:38.841Z,7.60
2019-01-12T00:24:05.699Z,7.27
2019-01-12T00:26:32.721Z,8.03
2019-01-12T00:28:59.611Z,7.47
2019-01-12T00:31:26.482Z,7.27
2019-01-12T00:33:53.424Z,7.87
2019-01-12T00:36:20.185Z,7.13
2019-01-12T00:38:46.984Z,8.30
2019-01-12T00:41:14.055Z,7.53
2019-01-12T00:43:40.853Z,6.90
2019-01-12T00:46:07.674Z,6.90
2019-01-12T00:48:34.575Z,7.73
2019-01-12T00:51:01.393Z,8.80
2019-01-12T00:53:28.201Z,7.53
2019-01-12T00:55:55.320Z,10.27
2019-01-12T00:58:22.152Z,8.37
2019-01-12T01:00:48.965Z,9.00
2019-01-12T01:03:15.750Z,8.43
2019-01-12T01:05:42.560Z,7.83
2019-01-12T01:08:09.508Z,6.20
2019-01-12T01:10:36.317Z,8.63
2019-01-12T01:13:03.200Z,6.97
2019-01-12T01:15:30.117Z,7.40
2019-01-12T01:17:57.187Z,6.20
2019-01-12T01:20:24.066Z,6.60
2019-01-12T01:22:50.837Z,6.37
2019-01-12T01:25:17.681Z,7.70
2019-01-12T01:27:45.499Z,6.93
2019-01-12T01:30:13.681Z,7.60
2019-01-12T01:32:40.504Z,7.07
2019-01-12T01:35:07.421Z,6.40
2019-01-12T01:37:34.225Z,5.70
2019-01-12T01:40:01.172Z,6.87
2019-01-12T01:42:27.944Z,7.23
2019-01-12T01:44:54.716Z,7.40
2019-01-12T01:47:21.773Z,7.60
2019-01-12T01:49:49.093Z,7.00
2019-01-12T01:52:15.967Z,7.60
2019-01-12T01:54:42.981Z,9.23
2019-01-12T01:57:09.789Z,7.67
2019-01-12T01:59:36.595Z,7.60
2019-01-12T02:02:03.521Z,9.50
2019-01-12T02:04:30.409Z,7.47
2019-01-12T02:06:57.213Z,7.30
2019-01-12T02:09:24.032Z,7.47
2019-01-12T02:11:51.169Z,8.93
2019-01-12T02:14:17.965Z,6.40
2019-01-12T02:16:44.768Z,9.17
2019-01-12T02:19:11.581Z,6.87
2019-01-12T02:21:38.403Z,7.40
2019-01-12T02:24:05.410Z,6.37
2019-01-12T02:26:35.183Z,7.73
2019-01-12T02:29:01.990Z,6.80
2019-01-12T02:31:28.817Z,6.50
2019-01-12T02:33:55.620Z,7.47
2019-01-12T02:36:22.454Z,6.37
2019-01-12T02:38:49.420Z,6.70
2019-01-12T02:41:16.189Z,6.80
2019-01-12T02:43:43.102Z,6.90
2019-01-12T02:46:09.971Z,6.80
2019-01-12T02:48:36.973Z,6.00
2019-01-12T02:51:03.803Z,6.50
2019-01-12T02:53:30.648Z,7.07
2019-01-12T02:55:57.424Z,8.40
2019-01-12T02:58:24.221Z,7.23
2019-01-12T03:00:51.239Z,6.77
2019-01-12T03:03:18.012Z,7.17
2019-01-12T03:05:44.821Z,8.80
2019-01-12T03:08:11.636Z,7.17
2019-01-12T03:10:38.420Z,7.17
2019-01-12T03:13:05.449Z,5.70
2019-01-12T03:15:32.376Z,7.37
2019-01-12T03:17:59.143Z,7.50
2019-01-12T03:20:25.969Z,6.50
2019-01-12T03:22:52.968Z,6.20
2019-01-12T03:25:19.776Z,6.40
2019-01-12T03:27:46.624Z,6.57
2019-01-12T03:30:16.978Z,6.27
2019-01-12T03:32:43.848Z,5.93
2019-01-12T03:35:10.740Z,7.07
2019-01-12T03:37:37.529Z,7.27
2019-01-12T03:40:05.421Z,6.97
2019-01-12T03:42:32.308Z,6.77
2019-01-12T03:44:59.166Z,8.20
2019-01-12T03:47:26.062Z,7.00
2019-01-12T03:49:55.124Z,7.20
2019-01-12T03:52:22.102Z,8.33
2019-01-12T03:54:48.876Z,7.13
2019-01-12T03:57:15.732Z,10.13
2019-01-12T03:59:42.583Z,8.37
2019-01-12T04:02:09.386Z,7.37
2019-01-12T04:04:37.985Z,8.07
2019-01-12T04:07:04.884Z,7.47
2019-01-12T04:09:31.684Z,7.47
2019-01-12T04:11:58.535Z,6.63
2019-01-12T04:14:25.324Z,6.93
2019-01-12T04:16:52.131Z,9.30
2019-01-12T04:19:18.901Z,8.23
2019-01-12T04:21:45.901Z,8.57
2019-01-12T04:24:12.704Z,7.67
2019-01-12T04:26:39.492Z,7.53
2019-01-12T04:29:06.316Z,7.50
2019-01-12T04:31:33.105Z,7.23
2019-01-12T04:34:00.095Z,6.70
2019-01-12T04:36:27.282Z,7.10
2019-01-12T04:38:54.052Z,6.77
2019-01-12T04:41:20.861Z,8.47
2019-01-12T04:43:47.753Z,9.20
2019-01-12T04:46:14.591Z,9.80
2019-01-12T04:48:41.397Z,9.90
2019-01-12T04:51:08.364Z,9.63
2019-01-12T04:53:35.160Z,7.07
2019-01-12T04:56:02.104Z,6.43
2019-01-12T04:58:28.912Z,11.50
2019-01-12T05:00:55.693Z,8.37
2019-01-12T05:03:22.507Z,6.83
2019-01-12T05:05:49.523Z,6.37
2019-01-12T05:08:16.326Z,6.60
2019-01-12T05:10:43.178Z,6.23
2019-01-12T05:13:10.055Z,6.10
2019-01-12T05:15:36.869Z,6.13
2019-01-12T05:18:03.643Z,5.30
2019-01-12T05:20:30.476Z,5.97
2019-01-12T05:22:57.253Z,6.87
2019-01-12T05:25:24.043Z,6.10
2019-01-12T05:27:51.065Z,7.00
2019-01-12T05:30:18.916Z,6.20
2019-01-12T05:32:45.686Z,5.70
2019-01-12T05:35:12.697Z,6.20
2019-01-12T05:37:39.488Z,5.47
2019-01-12T05:40:06.429Z,6.43
2019-01-12T05:42:33.244Z,6.60
2019-01-12T05:45:00.008Z,6.90
2019-01-12T05:47:26.779Z,5.17
2019-01-12T05:49:54.265Z,7.13
2019-01-12T05:52:21.200Z,7.30
2019-01-12T05:54:47.976Z,5.63
2019-01-12T05:57:14.978Z,6.40
2019-01-12T05:59:41.743Z,4.73
2019-01-12T06:02:08.512Z,5.03
2019-01-12T06:04:35.352Z,5.03
2019-01-12T06:07:02.154Z,5.23
2019-01-12T06:09:28.911Z,4.80
2019-01-12T06:11:55.780Z,5.77
2019-01-12T06:14:22.775Z,4.50
2019-01-12T06:16:49.539Z,5.83
2019-01-12T06:19:16.525Z,5.87
2019-01-12T06:21:43.556Z,5.63
2019-01-12T06:24:10.323Z,5.10
2019-01-12T06:26:37.128Z,5.30
2019-01-12T06:29:04.014Z,5.37
2019-01-12T06:31:30.809Z,5.77
2019-01-12T06:33:57.835Z,5.40
2019-01-12T06:36:24.675Z,5.50
2019-01-12T06:38:51.744Z,6.10
2019-01-12T06:41:18.601Z,5.10
2019-01-12T06:43:45.485Z,4.17
2019-01-12T06:46:12.259Z,4.43
2019-01-12T06:48:39.252Z,4.50
2019-01-12T06:51:06.048Z,4.97
2019-01-12T06:53:32.835Z,6.87
2019-01-12T06:55:59.630Z,6.87
2019-01-12T06:58:26.397Z,5.73
2019-01-12T07:00:53.274Z,5.53
2019-01-12T07:03:20.089Z,5.37
2019-01-12T07:05:46.898Z,4.53
2019-01-12T07:08:13.703Z,5.33
2019-01-12T07:10:40.528Z,5.03
2019-01-12T07:13:07.320Z,4.57
2019-01-12T07:15:34.120Z,5.63
2019-01-12T07:18:01.209Z,5.30
2019-01-12T07:20:28.008Z,5.53
2019-01-12T07:22:54.807Z,6.07
2019-01-12T07:25:21.674Z,5.23
2019-01-12T07:27:48.453Z,5.50
2019-01-12T07:30:16.505Z,7.63
2019-01-12T07:32:43.324Z,5.90
2019-01-12T07:35:10.095Z,5.50
2019-01-12T07:37:36.863Z,6.00
2019-01-12T07:40:03.903Z,5.40
2019-01-12T07:42:30.780Z,5.50
2019-01-12T07:44:57.687Z,5.37
2019-01-12T07:47:24.472Z,5.23
2019-01-12T07:49:51.236Z,5.80
2019-01-12T07:52:18.261Z,5.00
2019-01-12T07:54:45.253Z,5.40
2019-01-12T07:57:12.164Z,4.70
2019-01-12T07:59:38.940Z,5.27
2019-01-12T08:02:05.947Z,6.77
2019-01-12T08:04:32.805Z,6.00
2019-01-12T08:06:59.563Z,4.50
2019-01-12T08:09:26.437Z,6.33
2019-01-12T08:11:53.219Z,6.70
2019-01-12T08:14:19.993Z,5.43
2019-01-12T08:16:47.121Z,7.50
2019-01-12T08:19:13.962Z,5.80
2019-01-12T08:21:40.770Z,5.87
2019-01-12T08:24:07.653Z,6.27
2019-01-12T08:26:34.723Z,6.80
2019-01-12T08:29:01.531Z,6.50
2019-01-12T08:31:28.333Z,6.07
2019-01-12T08:33:55.134Z,6.00
2019-01-12T08:36:21.920Z,5.50
2019-01-12T08:38:48.729Z,5.00
2019-01-12T08:41:15.573Z,6.53
2019-01-12T08:43:42.396Z,6.50
2019-01-12T08:46:09.448Z,6.57
2019-01-12T08:48:36.218Z,6.07
2019-01-12T08:51:03.134Z,6.60
2019-01-12T08:53:30.155Z,6.00
2019-01-12T08:55:56.961Z,6.10
2019-01-12T08:58:23.953Z,5.30
2019-01-12T09:00:50.760Z,5.27
2019-01-12T09:03:17.779Z,5.43
2019-01-12T09:05:44.558Z,5.70
2019-01-12T09:08:11.583Z,6.27
2019-01-12T09:10:38.580Z,5.53
2019-01-12T09:13:05.373Z,5.93
2019-01-12T09:15:32.425Z,5.17
2019-01-12T09:17:59.197Z,8.27
2019-01-12T09:20:25.976Z,5.73
2019-01-12T09:22:53.029Z,5.03
2019-01-12T09:25:19.897Z,5.70
2019-01-12T09:27:46.784Z,5.83
2019-01-12T09:30:15.005Z,6.80
2019-01-12T09:32:41.853Z,5.83
2019-01-12T09:35:08.857Z,5.50
2019-01-12T09:37:35.781Z,5.57
2019-01-12T09:40:03.722Z,5.73
2019-01-12T09:42:30.604Z,5.77
2019-01-12T09:44:57.533Z,4.80
2019-01-12T09:47:25.460Z,6.00
2019-01-12T09:49:52.231Z,5.83
2019-01-12T09:52:19.061Z,5.30
2019-01-12T09:54:45.833Z,5.20
2019-01-12T09:57:12.661Z,5.43
2019-01-12T09:59:39.604Z,4.60
2019-01-12T10:02:06.422Z,4.90
2019-01-12T10:04:33.449Z,4.10
2019-01-12T10:07:00.511Z,4.70
2019-01-12T10:09:27.395Z,3.80
2019-01-12T10:11:54.183Z,3.60
2019-01-12T10:14:21.085Z,3.37
2019-01-12T10:16:48.238Z,3.00
2019-01-12T10:19:15.131Z,3.40
2019-01-12T10:21:42.132Z,2.83
2019-01-12T10:24:08.979Z,3.10
2019-01-12T10:26:35.882Z,2.60
2019-01-12T10:29:03.456Z,3.30
2019-01-12T10:31:30.299Z,2.20
2019-01-12T10:33:57.173Z,2.93
2019-01-12T10:36:24.120Z,2.93
2019-01-12T10:38:50.908Z,2.80
2019-01-12T10:41:17.683Z,3.40
2019-01-12T10:43:44.759Z,2.50
2019-01-12T10:46:11.628Z,2.00
2019-01-12T10:48:38.475Z,2.70
2019-01-12T10:51:05.367Z,2.10
2019-01-12T10:53:32.278Z,3.17
2019-01-12T10:55:59.098Z,2.80
2019-01-12T10:58:25.883Z,2.57
2019-01-12T11:00:52.679Z,2.13
2019-01-12T11:03:19.569Z,2.20
2019-01-12T11:05:46.413Z,2.63
2019-01-12T11:08:13.224Z,2.50
2019-01-12T11:10:40.262Z,3.20
2019-01-12T11:13:07.093Z,2.47
2019-01-12T11:15:33.880Z,2.43
2019-01-12T11:18:00.648Z,2.80
2019-01-12T11:20:27.601Z,2.80
2019-01-12T11:22:54.531Z,2.77
2019-01-12T11:25:21.531Z,2.50
2019-01-12T11:27:48.601Z,2.70
2019-01-12T11:30:16.140Z,2.80
2019-01-12T11:32:44.413Z,2.60
2019-01-12T11:35:11.432Z,2.93
2019-01-12T11:37:38.306Z,2.50
2019-01-12T11:40:06.296Z,2.50
2019-01-12T11:42:33.323Z,2.43
2019-01-12T11:45:00.158Z,2.40
2019-01-12T11:47:27.032Z,3.17
2019-01-12T11:49:53.812Z,2.40
2019-01-12T11:52:20.591Z,2.50
2019-01-12T11:54:47.392Z,2.20
2019-01-12T11:57:19.170Z,2.40
2019-01-12T11:59:42.929Z,2.97
2019-01-12T12:02:09.810Z,2.37
2019-01-12T12:04:36.902Z,2.60
2019-01-12T12:07:03.732Z,3.03
2019-01-12T12:09:30.532Z,3.00
2019-01-12T12:11:57.415Z,2.20
2019-01-12T12:14:24.218Z,2.83
2019-01-12T12:16:51.119Z,2.70
2019-01-12T12:19:18.232Z,2.60
2019-01-12T12:21:45.428Z,2.73
2019-01-12T12:24:12.199Z,2.70
2019-01-12T12:26:39.320Z,3.57
2019-01-12T12:29:06.203Z,3.00
2019-01-12T12:31:33.332Z,2.80
2019-01-12T12:34:00.668Z,2.60
2019-01-12T12:36:27.485Z,3.40
2019-01-12T12:38:54.292Z,3.03
2019-01-12T12:41:21.093Z,2.80
2019-01-12T12:43:47.887Z,2.40
2019-01-12T12:46:14.663Z,2.60
2019-01-12T12:48:41.471Z,3.00
2019-01-12T12:51:08.275Z,2.93
2019-01-12T12:53:35.056Z,2.60
2019-01-12T12:56:01.871Z,2.37
2019-01-12T12:58:28.683Z,3.00
2019-01-12T13:00:55.493Z,2.50
2019-01-12T13:03:22.354Z,3.20
2019-01-12T13:05:49.569Z,3.50
2019-01-12T13:08:16.871Z,2.73
2019-01-12T13:10:43.967Z,2.50
2019-01-12T13:13:10.947Z,3.50
2019-01-12T13:15:37.795Z,3.00
2019-01-12T13:18:04.770Z,3.27
2019-01-12T13:20:31.709Z,3.67
2019-01-12T13:22:58.641Z,3.80
2019-01-12T13:25:25.660Z,3.13
2019-01-12T13:27:52.530Z,3.67
2019-01-12T13:30:20.512Z,4.00
2019-01-12T13:32:47.533Z,3.87
2019-01-12T13:35:14.488Z,4.40
2019-01-12T13:37:41.397Z,4.07
2019-01-12T13:40:08.957Z,2.70
2019-01-12T13:42:36.964Z,4.40
2019-01-12T13:45:04.641Z,3.70
2019-01-12T13:47:31.457Z,3.30
2019-01-12T13:49:58.533Z,4.33
2019-01-12T13:52:25.341Z,3.87
2019-01-12T13:54:53.050Z,2.90
2019-01-12T13:57:19.850Z,3.93
2019-01-12T13:59:46.633Z,4.60
2019-01-12T14:02:13.798Z,5.17
2019-01-12T14:04:40.620Z,5.30
2019-01-12T14:07:07.420Z,5.50
2019-01-12T14:09:34.334Z,5.80
2019-01-12T14:12:01.129Z,5.00
2019-01-12T14:14:27.963Z,4.93
2019-01-12T14:16:54.861Z,5.33
2019-01-12T14:19:21.739Z,5.57
2019-01-12T14:21:48.724Z,5.57
2019-01-12T14:24:15.936Z,5.47
2019-01-12T14:26:42.796Z,5.70
2019-01-12T14:29:09.617Z,5.87
2019-01-12T14:31:36.517Z,6.50
2019-01-12T14:34:03.353Z,6.50
2019-01-12T14:36:30.204Z,6.87
2019-01-12T14:38:57.665Z,6.37
2019-01-12T14:41:24.543Z,6.33
2019-01-12T14:43:51.328Z,6.37
2019-01-12T14:46:18.135Z,6.93
2019-01-12T14:48:45.527Z,5.83
2019-01-12T14:51:12.432Z,5.70
2019-01-12T14:53:39.333Z,6.73
2019-01-12T14:56:06.157Z,6.57
2019-01-12T14:58:33.280Z,6.20
2019-01-12T15:01:00.186Z,7.03
2019-01-12T15:03:27.007Z,7.40
2019-01-12T15:05:53.958Z,7.20
2019-01-12T15:08:20.889Z,7.40
2019-01-12T15:10:48.036Z,6.70
2019-01-12T15:13:15.027Z,7.23
2019-01-12T15:15:41.937Z,7.97
2019-01-12T15:18:08.960Z,7.80
2019-01-12T15:20:35.778Z,9.33
2019-01-12T15:23:03.288Z,8.50
2019-01-12T15:25:30.267Z,7.60
2019-01-12T15:27:57.107Z,7.87
2019-01-12T15:30:24.863Z,6.37
2019-01-12T15:32:51.764Z,7.57
2019-01-12T15:35:18.972Z,6.80
2019-01-12T15:37:45.947Z,8.00
2019-01-12T15:40:13.252Z,7.53
2019-01-12T15:42:40.284Z,8.00
2019-01-12T15:45:08.713Z,8.27
2019-01-12T15:47:35.494Z,7.63
2019-01-12T15:50:03.041Z,8.23
2019-01-12T15:52:29.869Z,7.73
2019-01-12T15:54:56.711Z,9.33
2019-01-12T15:57:23.742Z,8.70
2019-01-12T15:59:50.628Z,9.13
2019-01-12T16:02:17.430Z,8.30
2019-01-12T16:04:44.305Z,9.03
2019-01-12T16:07:11.185Z,9.20
2019-01-12T16:09:37.998Z,9.77
2019-01-12T16:12:04.825Z,9.50
2019-01-12T16:14:31.655Z,10.73
2019-01-12T16:16:58.898Z,10.93
2019-01-12T16:19:25.700Z,12.10
2019-01-12T16:21:52.711Z,12.40
2019-01-12T16:24:19.546Z,10.70
2019-01-12T16:26:46.311Z,9.80
2019-01-12T16:29:13.156Z,11.50
2019-01-12T16:31:40.050Z,10.73
2019-01-12T16:34:08.072Z,10.00
2019-01-12T16:36:34.854Z,11.30
2019-01-12T16:39:01.776Z,10.67
2019-01-12T16:41:28.680Z,9.63
2019-01-12T16:43:55.510Z,10.20
2019-01-12T16:46:22.511Z,11.80
2019-01-12T16:48:49.356Z,8.30
2019-01-12T16:51:16.169Z,10.50
2019-01-12T16:53:42.936Z,10.20
2019-01-12T16:56:09.741Z,9.43
2019-01-12T16:58:36.637Z,9.60
2019-01-12T17:01:03.412Z,9.60
2019-01-12T17:03:30.267Z,9.73
2019-01-12T17:05:57.065Z,10.00
2019-01-12T17:08:23.987Z,10.37
2019-01-12T17:10:50.909Z,10.20
2019-01-12T17:13:17.717Z,9.03
2019-01-12T17:15:44.611Z,9.60
2019-01-12T17:18:11.393Z,10.30
2019-01-12T17:20:38.276Z,10.27
2019-01-12T17:23:05.082Z,9.70
2019-01-12T17:25:32.073Z,11.57
2019-01-12T17:27:59.109Z,12.60
2019-01-12T17:30:25.950Z,11.40
2019-01-12T17:32:53.055Z,10.70
2019-01-12T17:35:19.867Z,12.60
2019-01-12T17:37:46.754Z,11.50
2019-01-12T17:40:13.772Z,13.00
2019-01-12T17:42:41.891Z,13.37
2019-01-12T17:45:13.360Z,13.33
2019-01-12T17:47:40.123Z,14.07
2019-01-12T17:50:07.856Z,13.03
2019-01-12T17:52:34.664Z,13.53
2019-01-12T17:55:01.616Z,13.00
2019-01-12T17:57:28.560Z,14.70
2019-01-12T17:59:55.348Z,14.93
2019-01-12T18:02:22.111Z,13.83
2019-01-12T18:04:49.160Z,13.43
2019-01-12T18:07:15.963Z,16.90
2019-01-12T18:09:42.984Z,14.50
2019-01-12T18:12:09.881Z,13.73
2019-01-12T18:14:36.648Z,18.77
2019-01-12T18:17:03.468Z,14.50
2019-01-12T18:19:30.308Z,15.70
2019-01-12T18:21:57.149Z,13.50
2019-01-12T18:24:25.076Z,14.53
2019-01-12T18:26:52.189Z,14.90
2019-01-12T18:29:19.011Z,13.80
2019-01-12T18:31:45.813Z,13.57
2019-01-12T18:34:12.901Z,13.03
2019-01-12T18:36:39.775Z,13.77
2019-01-12T18:39:06.752Z,13.80
2019-01-12T18:41:33.765Z,14.67
2019-01-12T18:44:00.654Z,13.40
2019-01-12T18:46:27.492Z,13.97
2019-01-12T18:48:54.561Z,12.10
2019-01-12T18:51:21.422Z,13.70
2019-01-12T18:53:48.232Z,13.87
2019-01-12T18:56:15.305Z,13.53
2019-01-12T18:58:42.136Z,11.83
2019-01-12T19:01:08.907Z,13.50
2019-01-12T19:03:35.752Z,13.57
2019-01-12T19:06:02.639Z,13.67
2019-01-12T19:08:29.458Z,13.37
2019-01-12T19:10:56.559Z,14.37
2019-01-12T19:13:23.400Z,14.37
2019-01-12T19:15:50.883Z,14.90
2019-01-12T19:18:17.801Z,15.43
2019-01-12T19:20:44.606Z,13.23
2019-01-12T19:23:11.492Z,13.50
2019-01-12T19:25:38.359Z,11.60
2019-01-12T19:28:05.394Z,13.30
2019-01-12T19:30:32.188Z,12.50
2019-01-12T19:32:59.287Z,11.53
2019-01-12T19:35:26.088Z,12.70
2019-01-12T19:37:53.984Z,13.43
2019-01-12T19:40:21.637Z,14.73
2019-01-12T19:42:48.522Z,13.50
2019-01-12T19:45:15.574Z,9.50
2019-01-12T19:47:42.760Z,9.33
2019-01-12T19:50:11.128Z,10.97
2019-01-12T19:52:37.960Z,10.00
2019-01-12T19:55:05.093Z,9.93
2019-01-12T19:57:31.884Z,8.50
2019-01-12T20:00:00.525Z,7.77
2019-01-12T20:02:27.439Z,8.20
2019-01-12T20:04:55.171Z,6.90
2019-01-12T20:07:22.189Z,7.67
2019-01-12T20:09:49.033Z,7.00
2019-01-12T20:12:19.036Z,6.53
2019-01-12T20:14:45.922Z,6.40
2019-01-12T20:17:12.977Z,6.83
2019-01-12T20:19:39.846Z,7.43
2019-01-12T20:22:06.641Z,6.30
2019-01-12T20:24:33.431Z,6.00
2019-01-12T20:27:00.227Z,6.50
2019-01-12T20:29:27.236Z,6.57
2019-01-12T20:31:57.696Z,7.23
2019-01-12T20:34:29.683Z,7.63
2019-01-12T20:37:14.726Z,7.40
2019-01-12T20:39:51.970Z,7.97
2019-01-12T20:42:44.345Z,7.20
2019-01-12T20:45:27.492Z,8.00
2019-01-12T20:47:58.841Z,8.00
2019-01-12T20:50:32.175Z,8.73
2019-01-12T20:53:11.855Z,7.40
2019-01-12T20:56:13.253Z,7.60
2019-01-12T20:58:47.215Z,7.03
2019-01-12T21:01:19.248Z,6.60
2019-01-12T21:04:04.530Z,6.77
2019-01-12T21:06:49.742Z,6.67
2019-01-12T21:09:40.965Z,6.60
2019-01-12T21:12:27.566Z,7.10
2019-01-12T21:15:03.792Z,5.87
2019-01-12T21:17:30.666Z,6.00
2019-01-12T21:19:57.903Z,5.27
2019-01-12T21:22:24.727Z,5.43
2019-01-12T21:24:51.574Z,5.47
2019-01-12T21:27:18.433Z,4.50
2019-01-12T21:29:45.252Z,4.87
2019-01-12T21:32:12.111Z,5.17
2019-01-12T21:34:39.016Z,4.87
2019-01-12T21:37:06.205Z,5.27
2019-01-12T21:39:33.253Z,4.77
2019-01-12T21:42:00.235Z,4.87
2019-01-12T21:44:27.691Z,5.13
2019-01-12T21:46:54.645Z,4.57
2019-01-12T21:49:21.549Z,5.50
2019-01-12T21:51:48.404Z,5.67
2019-01-12T21:54:15.186Z,5.43
2019-01-12T21:56:41.988Z,5.80
2019-01-12T21:59:08.941Z,5.40
2019-01-12T22:01:36.343Z,5.23
2019-01-12T22:04:03.461Z,5.43
2019-01-12T22:06:30.320Z,6.07
2019-01-12T22:08:57.248Z,4.13
2019-01-12T22:11:24.686Z,4.30
2019-01-12T22:13:51.584Z,4.10
2019-01-12T22:16:18.446Z,4.90
2019-01-12T22:18:45.429Z,3.80
2019-01-12T22:21:12.369Z,3.93
2019-01-12T22:23:39.280Z,4.40
2019-01-12T22:26:06.234Z,5.00
2019-01-12T22:28:33.171Z,4.60
2019-01-12T22:31:00.099Z,4.97
2019-01-12T22:33:27.052Z,4.93
2019-01-12T22:35:53.988Z,4.40
2019-01-12T22:38:20.815Z,5.13
2019-01-12T22:40:47.724Z,5.27
2019-01-12T22:43:14.576Z,4.40
2019-01-12T22:45:41.376Z,5.37
2019-01-12T22:48:08.225Z,4.93
2019-01-12T22:50:35.177Z,5.10
2019-01-12T22:53:02.194Z,4.60
2019-01-12T22:55:29.009Z,5.93
2019-01-12T22:57:56.060Z,4.83
2019-01-12T23:00:24.732Z,6.27
2019-01-12T23:02:52.151Z,4.83
2019-01-12T23:05:19.048Z,6.50
2019-01-12T23:07:46.119Z,3.90
2019-01-12T23:10:13.114Z,5.90
2019-01-12T23:12:40.043Z,4.53
2019-01-12T23:15:07.188Z,4.83
2019-01-12T23:17:34.036Z,3.90
2019-01-12T23:20:00.839Z,4.20
2019-01-12T23:22:27.927Z,4.70
2019-01-12T23:24:54.796Z,5.03
2019-01-12T23:27:21.806Z,3.80
2019-01-12T23:29:48.616Z,4.00
2019-01-12T23:32:15.528Z,4.40
2019-01-12T23:34:42.500Z,2.93
2019-01-12T23:37:09.785Z,3.60
2019-01-12T23:39:36.744Z,3.27
2019-01-12T23:42:03.969Z,4.43
2019-01-12T23:44:30.794Z,2.63
2019-01-12T23:46:57.623Z,2.73
2019-01-12T23:49:24.596Z,3.70
2019-01-12T23:51:51.681Z,3.07
2019-01-12T23:54:18.487Z,3.47
2019-01-12T23:56:45.479Z,2.97
2019-01-12T23:59:12.292Z,2.53
